Terminal Aerodrome Forecast
Issued by NWS

Home | Current Version | Previous Version | Graphics & Text | Print | Product List | Glossary On
Versions: 1 2 3 4 5 6 7 8 9 10 11 12 13 14 15 16 17 18 19 20 21 22 23 24 25 26 27 28 29 30 31 32 33 34 35 36 37 38 39 40 41 42 43 44
000
FTUS43 KLOT 130400 AAC
TAFORD
TAF AMD
KORD 130402Z 1304/1406 23010G18KT 3SM TSRA SCT015 OVC035CB
      TEMPO 1304/1306 1SM TSRA OVC010CB
     FM130700 30008KT P6SM VCSH BKN015 OVC025
     FM131200 29009KT P6SM SCT020
     FM131800 28010G17KT P6SM SCT045
     FM140000 30010KT P6SM BKN045=

USA.gov is the U.S. government's official web portal to all federal, state and local government web resources and services.